sensor_id;sensor_type;location;lat;lon;timestamp;pressure;altitude;pressure_sealevel;temperature;humidity
18201;BME280;9226;47.858;9.594;2023-11-21T00:01:51;94733.06;;;9.66;66.59
18201;BME280;9226;47.858;9.594;2023-11-21T00:04:17;94728.16;;;9.61;66.68
18201;BME280;9226;47.858;9.594;2023-11-21T00:06:42;94730.94;;;9.59;67.27
18201;BME280;9226;47.858;9.594;2023-11-21T00:09:08;94736.53;;;9.56;67.53
18201;BME280;9226;47.858;9.594;2023-11-21T00:11:33;94738.06;;;9.49;67.86
18201;BME280;9226;47.858;9.594;2023-11-21T00:13:59;94738.59;;;9.53;67.29
18201;BME280;9226;47.858;9.594;2023-11-21T00:16:24;94728.56;;;9.56;68.06
18201;BME280;9226;47.858;9.594;2023-11-21T00:18:50;94733.03;;;9.56;67.95
18201;BME280;9226;47.858;9.594;2023-11-21T00:21:16;94733.03;;;9.56;68.29
18201;BME280;9226;47.858;9.594;2023-11-21T00:23:42;94734.97;;;9.44;69.11
18201;BME280;9226;47.858;9.594;2023-11-21T00:26:07;94734.13;;;9.44;68.99
18201;BME280;9226;47.858;9.594;2023-11-21T00:28:32;94736.63;;;9.45;68.62
18201;BME280;9226;47.858;9.594;2023-11-21T00:30:58;94741.50;;;9.40;69.40
18201;BME280;9226;47.858;9.594;2023-11-21T00:33:23;94740.53;;;9.41;69.31
18201;BME280;9226;47.858;9.594;2023-11-21T00:35:50;94738.28;;;9.36;69.36
18201;BME280;9226;47.858;9.594;2023-11-21T00:38:15;94732.69;;;9.30;70.29
18201;BME280;9226;47.858;9.594;2023-11-21T00:40:45;94736.19;;;9.30;70.31
18201;BME280;9226;47.858;9.594;2023-11-21T00:43:10;94731.84;;;9.29;70.72
18201;BME280;9226;47.858;9.594;2023-11-21T00:45:36;94729.06;;;9.31;70.31
18201;BME280;9226;47.858;9.594;2023-11-21T00:48:02;94713.47;;;9.28;70.71
18201;BME280;9226;47.858;9.594;2023-11-21T00:50:30;94716.38;;;9.24;71.07
18201;BME280;9226;47.858;9.594;2023-11-21T00:52:55;94710.66;;;9.19;71.68
18201;BME280;9226;47.858;9.594;2023-11-21T00:55:21;94714.91;;;9.11;72.29
18201;BME280;9226;47.858;9.594;2023-11-21T00:57:46;94719.78;;;9.05;72.70
18201;BME280;9226;47.858;9.594;2023-11-21T01:00:12;94705.88;;;9.03;72.83
18201;BME280;9226;47.858;9.594;2023-11-21T01:02:43;94698.59;;;8.96;73.31
18201;BME280;9226;47.858;9.594;2023-11-21T01:05:10;94700.84;;;9.00;72.95
18201;BME280;9226;47.858;9.594;2023-11-21T01:07:36;94702.25;;;9.04;72.81
18201;BME280;9226;47.858;9.594;2023-11-21T01:10:03;94697.38;;;9.00;73.05
18201;BME280;9226;47.858;9.594;2023-11-21T01:12:31;94705.44;;;8.98;73.19
18201;BME280;9226;47.858;9.594;2023-11-21T01:14:56;94709.19;;;9.05;72.41
18201;BME280;9226;47.858;9.594;2023-11-21T01:17:22;94704.75;;;9.06;72.23
18201;BME280;9226;47.858;9.594;2023-11-21T01:19:48;94700.44;;;9.05;72.72
18201;BME280;9226;47.858;9.594;2023-11-21T01:22:13;94701.00;;;9.09;72.17
18201;BME280;9226;47.858;9.594;2023-11-21T01:24:39;94715.31;;;9.06;72.17
18201;BME280;9226;47.858;9.594;2023-11-21T01:27:04;94707.53;;;9.04;72.34
18201;BME280;9226;47.858;9.594;2023-11-21T01:29:30;94711.16;;;9.03;72.28
18201;BME280;9226;47.858;9.594;2023-11-21T01:31:55;94710.31;;;9.03;72.21
18201;BME280;9226;47.858;9.594;2023-11-21T01:34:22;94714.88;;;9.01;72.21
18201;BME280;9226;47.858;9.594;2023-11-21T01:36:48;94718.66;;;8.98;72.58
18201;BME280;9226;47.858;9.594;2023-11-21T01:39:14;94717.28;;;9.04;72.57
18201;BME280;9226;47.858;9.594;2023-11-21T01:41:41;94717.97;;;9.06;72.11
18201;BME280;9226;47.858;9.594;2023-11-21T01:44:09;94727.03;;;9.03;72.49
18201;BME280;9226;47.858;9.594;2023-11-21T01:46:35;94724.25;;;9.05;72.69
18201;BME280;9226;47.858;9.594;2023-11-21T01:49:00;94724.13;;;9.07;72.55
18201;BME280;9226;47.858;9.594;2023-11-21T01:51:26;94726.91;;;9.05;72.62
18201;BME280;9226;47.858;9.594;2023-11-21T01:53:51;94720.91;;;9.03;73.18
18201;BME280;9226;47.858;9.594;2023-11-21T01:56:17;94716.31;;;9.05;72.78
18201;BME280;9226;47.858;9.594;2023-11-21T01:58:43;94717.41;;;9.02;73.04
18201;BME280;9226;47.858;9.594;2023-11-21T02:01:09;94714.88;;;9.01;73.55
18201;BME280;9226;47.858;9.594;2023-11-21T02:03:35;94721.59;;;9.05;73.18
18201;BME280;9226;47.858;9.594;2023-11-21T02:06:01;94714.63;;;9.04;72.88
18201;BME280;9226;47.858;9.594;2023-11-21T02:08:27;94714.34;;;9.07;72.93
18201;BME280;9226;47.858;9.594;2023-11-21T02:10:52;94712.53;;;9.08;73.12
18201;BME280;9226;47.858;9.594;2023-11-21T02:13:17;94718.81;;;9.07;73.25
18201;BME280;9226;47.858;9.594;2023-11-21T02:15:43;94717.00;;;9.07;73.27
18201;BME280;9226;47.858;9.594;2023-11-21T02:18:09;94715.91;;;9.10;73.13
18201;BME280;9226;47.858;9.594;2023-11-21T02:20:36;94710.34;;;9.13;72.87
18201;BME280;9226;47.858;9.594;2023-11-21T02:23:04;94713.41;;;9.08;73.45
18201;BME280;9226;47.858;9.594;2023-11-21T02:25:31;94711.31;;;9.12;73.22
18201;BME280;9226;47.858;9.594;2023-11-21T02:27:59;94711.41;;;9.00;74.57
18201;BME280;9226;47.858;9.594;2023-11-21T02:30:25;94711.97;;;9.04;74.02
18201;BME280;9226;47.858;9.594;2023-11-21T02:32:52;94707.53;;;9.04;74.40
18201;BME280;9226;47.858;9.594;2023-11-21T02:35:19;94707.53;;;9.04;74.35
18201;BME280;9226;47.858;9.594;2023-11-21T02:37:47;94710.03;;;9.06;73.82
18201;BME280;9226;47.858;9.594;2023-11-21T02:40:12;94707.69;;;9.03;74.31
18201;BME280;9226;47.858;9.594;2023-11-21T02:42:39;94711.97;;;9.04;73.97
18201;BME280;9226;47.858;9.594;2023-11-21T02:45:06;94705.88;;;9.03;74.01
18201;BME280;9226;47.858;9.594;2023-11-21T02:47:32;94707.81;;;9.01;74.23
18201;BME280;9226;47.858;9.594;2023-11-21T02:49:58;94708.22;;;8.97;74.58
18201;BME280;9226;47.858;9.594;2023-11-21T02:52:24;94707.63;;;8.93;74.94
18201;BME280;9226;47.858;9.594;2023-11-21T02:54:50;94704.13;;;8.93;74.46
18201;BME280;9226;47.858;9.594;2023-11-21T02:57:16;94706.91;;;8.91;74.68
18201;BME280;9226;47.858;9.594;2023-11-21T02:59:41;94708.88;;;8.89;74.77
18201;BME280;9226;47.858;9.594;2023-11-21T03:02:07;94701.03;;;8.78;76.80
18201;BME280;9226;47.858;9.594;2023-11-21T03:04:34;94710.75;;;8.77;75.63
18201;BME280;9226;47.858;9.594;2023-11-21T03:07:00;94707.66;;;8.72;76.43
18201;BME280;9226;47.858;9.594;2023-11-21T03:09:25;94711.78;;;8.65;77.35
18201;BME280;9226;47.858;9.594;2023-11-21T03:11:52;94706.25;;;8.68;76.37
18201;BME280;9226;47.858;9.594;2023-11-21T03:14:17;94705.53;;;8.66;76.68
18201;BME280;9226;47.858;9.594;2023-11-21T03:16:43;94703.72;;;8.66;76.26
18201;BME280;9226;47.858;9.594;2023-11-21T03:19:10;94704.84;;;8.64;76.17
18201;BME280;9226;47.858;9.594;2023-11-21T03:21:36;94702.19;;;8.64;76.29
18201;BME280;9226;47.858;9.594;2023-11-21T03:24:01;94694.13;;;8.44;77.89
18201;BME280;9226;47.858;9.594;2023-11-21T03:26:27;94695.31;;;8.51;76.86
18201;BME280;9226;47.858;9.594;2023-11-21T03:28:52;94697.69;;;8.55;76.61
18201;BME280;9226;47.858;9.594;2023-11-21T03:31:19;94704.19;;;8.50;76.96
18201;BME280;9226;47.858;9.594;2023-11-21T03:33:45;94697.50;;;8.46;77.57
18201;BME280;9226;47.858;9.594;2023-11-21T03:36:11;94699.16;;;8.47;76.96
18201;BME280;9226;47.858;9.594;2023-11-21T03:38:37;94698.91;;;8.50;76.69
18201;BME280;9226;47.858;9.594;2023-11-21T03:41:03;94693.88;;;8.47;77.43
18201;BME280;9226;47.858;9.594;2023-11-21T03:43:29;94701.56;;;8.50;76.97
18201;BME280;9226;47.858;9.594;2023-11-21T03:45:54;94700.59;;;8.51;76.90
18201;BME280;9226;47.858;9.594;2023-11-21T03:48:19;94703.75;;;8.45;77.31
18201;BME280;9226;47.858;9.594;2023-11-21T03:50:45;94708.09;;;8.46;77.32
18201;BME280;9226;47.858;9.594;2023-11-21T03:53:12;94706.97;;;8.49;76.75
18201;BME280;9226;47.858;9.594;2023-11-21T03:55:37;94711.69;;;8.45;76.65
18201;BME280;9226;47.858;9.594;2023-11-21T03:58:03;94713.69;;;8.32;77.75
18201;BME280;9226;47.858;9.594;2023-11-21T04:00:28;94704.75;;;8.33;77.60
18201;BME280;9226;47.858;9.594;2023-11-21T04:02:54;94706.00;;;8.29;77.87
18201;BME280;9226;47.858;9.594;2023-11-21T04:05:20;94702.13;;;8.33;77.12
18201;BME280;9226;47.858;9.594;2023-11-21T04:07:49;94703.34;;;8.29;77.32
18201;BME280;9226;47.858;9.594;2023-11-21T04:10:16;94699.84;;;8.28;76.92
18201;BME280;9226;47.858;9.594;2023-11-21T04:12:41;94699.28;;;8.25;76.89
18201;BME280;9226;47.858;9.594;2023-11-21T04:15:07;94696.78;;;8.23;77.00
18201;BME280;9226;47.858;9.594;2023-11-21T04:17:34;94693.09;;;8.14;77.31
18201;BME280;9226;47.858;9.594;2023-11-21T04:20:00;94700.31;;;8.12;77.40
18201;BME280;9226;47.858;9.594;2023-11-21T04:22:25;94696.00;;;8.11;77.54
18201;BME280;9226;47.858;9.594;2023-11-21T04:24:51;94692.50;;;8.11;77.92
18201;BME280;9226;47.858;9.594;2023-11-21T04:27:17;94695.88;;;8.13;77.45
18201;BME280;9226;47.858;9.594;2023-11-21T04:29:45;94696.63;;;8.04;78.71
18201;BME280;9226;47.858;9.594;2023-11-21T04:32:10;94689.28;;;8.07;78.08
18201;BME280;9226;47.858;9.594;2023-11-21T04:34:36;94692.31;;;8.03;78.81
18201;BME280;9226;47.858;9.594;2023-11-21T04:37:01;94696.97;;;8.10;77.93
18201;BME280;9226;47.858;9.594;2023-11-21T04:39:26;94693.88;;;8.05;78.41
18201;BME280;9226;47.858;9.594;2023-11-21T04:41:52;94692.69;;;7.98;79.48
18201;BME280;9226;47.858;9.594;2023-11-21T04:44:17;94688.97;;;8.01;79.22
18201;BME280;9226;47.858;9.594;2023-11-21T04:46:43;94689.69;;;8.03;78.91
18201;BME280;9226;47.858;9.594;2023-11-21T04:49:08;94699.53;;;8.01;79.26
18201;BME280;9226;47.858;9.594;2023-11-21T04:51:34;94700.25;;;8.03;78.66
18201;BME280;9226;47.858;9.594;2023-11-21T04:53:59;94696.63;;;8.04;78.35
18201;BME280;9226;47.858;9.594;2023-11-21T04:56:25;94701.81;;;8.05;78.81
18201;BME280;9226;47.858;9.594;2023-11-21T04:58:50;94702.75;;;8.04;78.63
18201;BME280;9226;47.858;9.594;2023-11-21T05:01:15;94696.91;;;8.01;78.88
18201;BME280;9226;47.858;9.594;2023-11-21T05:03:41;94700.66;;;7.87;79.59
18201;BME280;9226;47.858;9.594;2023-11-21T05:06:09;94702.44;;;7.97;78.86
18201;BME280;9226;47.858;9.594;2023-11-21T05:08:35;94709.00;;;8.03;78.47
18201;BME280;9226;47.858;9.594;2023-11-21T05:11:02;94703.00;;;8.01;78.90
18201;BME280;9226;47.858;9.594;2023-11-21T05:13:27;94714.41;;;8.02;78.45
18201;BME280;9226;47.858;9.594;2023-11-21T05:15:54;94713.31;;;8.04;78.39
18201;BME280;9226;47.858;9.594;2023-11-21T05:18:21;94717.53;;;8.07;78.03
18201;BME280;9226;47.858;9.594;2023-11-21T05:20:46;94720.28;;;8.05;78.09
18201;BME280;9226;47.858;9.594;2023-11-21T05:23:12;94713.31;;;8.04;77.76
18201;BME280;9226;47.858;9.594;2023-11-21T05:25:38;94720.41;;;8.04;77.62
18201;BME280;9226;47.858;9.594;2023-11-21T05:28:03;94717.66;;;8.05;77.31
18201;BME280;9226;47.858;9.594;2023-11-21T05:30:29;94717.91;;;8.02;77.56
18201;BME280;9226;47.858;9.594;2023-11-21T05:32:54;94728.59;;;8.01;77.55
18201;BME280;9226;47.858;9.594;2023-11-21T05:35:20;94724.63;;;7.95;77.81
18201;BME280;9226;47.858;9.594;2023-11-21T05:37:46;94721.75;;;7.98;77.54
18201;BME280;9226;47.858;9.594;2023-11-21T05:40:12;94731.28;;;7.89;77.92
18201;BME280;9226;47.858;9.594;2023-11-21T05:42:39;94733.56;;;7.94;77.38
18201;BME280;9226;47.858;9.594;2023-11-21T05:45:06;94735.22;;;7.95;77.24
18201;BME280;9226;47.858;9.594;2023-11-21T05:47:45;94724.50;;;7.96;77.37
18201;BME280;9226;47.858;9.594;2023-11-21T05:50:13;94733.56;;;7.94;77.36
18201;BME280;9226;47.858;9.594;2023-11-21T05:52:42;94732.69;;;7.93;77.47
18201;BME280;9226;47.858;9.594;2023-11-21T05:55:08;94732.63;;;7.84;78.06
18201;BME280;9226;47.858;9.594;2023-11-21T05:57:35;94737.31;;;7.80;78.21
18201;BME280;9226;47.858;9.594;2023-11-21T06:00:11;94734.56;;;7.82;78.53
18201;BME280;9226;47.858;9.594;2023-11-21T06:02:41;94740.66;;;7.82;78.52
18201;BME280;9226;47.858;9.594;2023-11-21T06:05:07;94738.16;;;7.81;78.69
18201;BME280;9226;47.858;9.594;2023-11-21T06:07:33;94731.91;;;7.82;78.33
18201;BME280;9226;47.858;9.594;2023-11-21T06:09:58;94744.88;;;7.85;78.36
18201;BME280;9226;47.858;9.594;2023-11-21T06:12:24;94740.66;;;7.82;78.86
18201;BME280;9226;47.858;9.594;2023-11-21T06:14:50;94738.16;;;7.81;79.27
18201;BME280;9226;47.858;9.594;2023-11-21T06:17:16;94742.59;;;7.80;79.30
18201;BME280;9226;47.858;9.594;2023-11-21T06:19:43;94743.91;;;7.74;80.01
18201;BME280;9226;47.858;9.594;2023-11-21T06:22:11;94737.09;;;7.72;80.13
18201;BME280;9226;47.858;9.594;2023-11-21T06:24:36;94740.31;;;7.75;80.71
18201;BME280;9226;47.858;9.594;2023-11-21T06:27:03;94742.03;;;7.76;80.99
18201;BME280;9226;47.858;9.594;2023-11-21T06:29:30;94753.03;;;7.82;80.32
18201;BME280;9226;47.858;9.594;2023-11-21T06:31:55;94750.84;;;7.87;79.92
18201;BME280;9226;47.858;9.594;2023-11-21T06:34:20;94750.34;;;7.93;79.84
18201;BME280;9226;47.858;9.594;2023-11-21T06:36:47;94753.00;;;7.93;80.16
18201;BME280;9226;47.858;9.594;2023-11-21T06:39:12;94746.75;;;7.94;80.58
18201;BME280;9226;47.858;9.594;2023-11-21T06:41:40;94758.03;;;7.96;80.04
18201;BME280;9226;47.858;9.594;2023-11-21T06:44:05;94761.38;;;7.98;80.12
18201;BME280;9226;47.858;9.594;2023-11-21T06:46:31;94763.94;;;7.88;81.58
18201;BME280;9226;47.858;9.594;2023-11-21T06:48:56;94758.66;;;7.88;81.24
18201;BME280;9226;47.858;9.594;2023-11-21T06:51:21;94764.50;;;7.92;80.81
18201;BME280;9226;47.858;9.594;2023-11-21T06:53:47;94757.09;;;7.86;81.69
18201;BME280;9226;47.858;9.594;2023-11-21T06:56:16;94763.81;;;7.90;81.12
18201;BME280;9226;47.858;9.594;2023-11-21T06:58:42;94763.56;;;7.93;81.10
18201;BME280;9226;47.858;9.594;2023-11-21T07:01:08;94772.69;;;7.89;81.88
18201;BME280;9226;47.858;9.594;2023-11-21T07:03:33;94778.22;;;7.97;80.96
18201;BME280;9226;47.858;9.594;2023-11-21T07:05:59;94775.81;;;7.94;82.07
18201;BME280;9226;47.858;9.594;2023-11-21T07:08:24;94778.81;;;7.89;81.97
18201;BME280;9226;47.858;9.594;2023-11-21T07:10:49;94780.59;;;8.00;81.45
18201;BME280;9226;47.858;9.594;2023-11-21T07:13:15;94782.97;;;8.03;81.38
18201;BME280;9226;47.858;9.594;2023-11-21T07:15:40;94787.28;;;8.04;81.39
18201;BME280;9226;47.858;9.594;2023-11-21T07:18:06;94787.75;;;8.09;81.18
18201;BME280;9226;47.858;9.594;2023-11-21T07:20:33;94789.31;;;8.12;80.98
18201;BME280;9226;47.858;9.594;2023-11-21T07:22:58;94783.06;;;8.13;81.21
18201;BME280;9226;47.858;9.594;2023-11-21T07:25:24;94786.28;;;8.17;80.96
18201;BME280;9226;47.858;9.594;2023-11-21T07:27:49;94789.06;;;8.15;81.08
18201;BME280;9226;47.858;9.594;2023-11-21T07:30:15;94787.38;;;8.14;81.17
18201;BME280;9226;47.858;9.594;2023-11-21T07:32:40;94788.59;;;8.10;81.21
18201;BME280;9226;47.858;9.594;2023-11-21T07:35:06;94796.41;;;8.11;81.03
18201;BME280;9226;47.858;9.594;2023-11-21T07:37:33;94804.78;;;8.17;81.19
18201;BME280;9226;47.858;9.594;2023-11-21T07:39:58;94813.28;;;8.20;81.07
18201;BME280;9226;47.858;9.594;2023-11-21T07:42:24;94812.91;;;8.25;81.01
18201;BME280;9226;47.858;9.594;2023-11-21T07:44:51;94817.00;;;8.29;80.96
18201;BME280;9226;47.858;9.594;2023-11-21T07:47:17;94817.44;;;8.34;80.72
18201;BME280;9226;47.858;9.594;2023-11-21T07:49:42;94807.47;;;8.38;80.73
18201;BME280;9226;47.858;9.594;2023-11-21T07:52:09;94807.31;;;8.39;80.86
18201;BME280;9226;47.858;9.594;2023-11-21T07:54:35;94803.50;;;8.43;80.57
18201;BME280;9226;47.858;9.594;2023-11-21T07:57:01;94811.31;;;8.45;81.11
18201;BME280;9226;47.858;9.594;2023-11-21T07:59:29;94802.88;;;8.51;80.74
18201;BME280;9226;47.858;9.594;2023-11-21T08:01:54;94803.44;;;8.55;80.62
18201;BME280;9226;47.858;9.594;2023-11-21T08:04:20;94804.75;;;8.60;80.33
18201;BME280;9226;47.858;9.594;2023-11-21T08:06:45;94799.47;;;8.60;80.65
18201;BME280;9226;47.858;9.594;2023-11-21T08:09:11;94804.53;;;8.52;81.31
18201;BME280;9226;47.858;9.594;2023-11-21T08:11:38;94802.75;;;8.53;81.70
18201;BME280;9226;47.858;9.594;2023-11-21T08:14:04;94803.72;;;8.40;82.47
18201;BME280;9226;47.858;9.594;2023-11-21T08:16:30;94810.59;;;8.31;83.78
18201;BME280;9226;47.858;9.594;2023-11-21T08:18:55;94809.28;;;8.37;82.79
18201;BME280;9226;47.858;9.594;2023-11-21T08:21:21;94811.50;;;8.21;84.77
18201;BME280;9226;47.858;9.594;2023-11-21T08:23:49;94813.28;;;8.20;85.47
18201;BME280;9226;47.858;9.594;2023-11-21T08:26:19;94816.75;;;8.32;84.51
18201;BME280;9226;47.858;9.594;2023-11-21T08:28:45;94813.97;;;8.33;84.73
18201;BME280;9226;47.858;9.594;2023-11-21T08:31:10;94816.38;;;8.25;86.26
18201;BME280;9226;47.858;9.594;2023-11-21T08:33:35;94818.44;;;8.22;86.34
18201;BME280;9226;47.858;9.594;2023-11-21T08:36:07;94820.09;;;8.34;85.16
18201;BME280;9226;47.858;9.594;2023-11-21T08:38:32;94829.06;;;8.43;84.29
18201;BME280;9226;47.858;9.594;2023-11-21T08:40:58;94816.34;;;8.48;84.01
18201;BME280;9226;47.858;9.594;2023-11-21T08:43:25;94820.28;;;8.54;84.06
18201;BME280;9226;47.858;9.594;2023-11-21T08:45:52;94827.44;;;8.63;83.16
18201;BME280;9226;47.858;9.594;2023-11-21T08:48:17;94824.53;;;8.66;83.17
18201;BME280;9226;47.858;9.594;2023-11-21T08:50:43;94832.59;;;8.64;83.50
18201;BME280;9226;47.858;9.594;2023-11-21T08:53:08;94828.88;;;8.67;82.88
18201;BME280;9226;47.858;9.594;2023-11-21T08:55:36;94839.06;;;8.72;83.12
18201;BME280;9226;47.858;9.594;2023-11-21T08:58:02;94841.22;;;8.66;83.40
18201;BME280;9226;47.858;9.594;2023-11-21T09:00:30;94836.16;;;8.75;83.23
18201;BME280;9226;47.858;9.594;2023-11-21T09:02:55;94842.16;;;8.77;83.38
18201;BME280;9226;47.858;9.594;2023-11-21T09:05:21;94839.81;;;8.83;83.19
18201;BME280;9226;47.858;9.594;2023-11-21T09:07:46;94847.38;;;8.88;82.84
18201;BME280;9226;47.858;9.594;2023-11-21T09:10:13;94849.59;;;8.83;82.92
18201;BME280;9226;47.858;9.594;2023-11-21T09:12:40;94847.81;;;8.93;82.74
18201;BME280;9226;47.858;9.594;2023-11-21T09:15:06;94853.47;;;9.00;82.74
18201;BME280;9226;47.858;9.594;2023-11-21T09:17:33;94852.09;;;9.05;82.44
18201;BME280;9226;47.858;9.594;2023-11-21T09:19:59;94852.88;;;9.17;82.02
18201;BME280;9226;47.858;9.594;2023-11-21T09:22:24;94859.44;;;9.23;82.42
18201;BME280;9226;47.858;9.594;2023-11-21T09:24:51;94846.97;;;9.35;82.26
18201;BME280;9226;47.858;9.594;2023-11-21T09:27:16;94847.72;;;9.47;82.68
18201;BME280;9226;47.858;9.594;2023-11-21T09:29:42;94854.06;;;9.65;82.72
18201;BME280;9226;47.858;9.594;2023-11-21T09:32:08;94859.56;;;9.83;82.10
18201;BME280;9226;47.858;9.594;2023-11-21T09:34:37;94850.81;;;10.02;82.44
18201;BME280;9226;47.858;9.594;2023-11-21T09:37:04;94861.25;;;10.35;83.04
18201;BME280;9226;47.858;9.594;2023-11-21T09:39:31;94855.53;;;10.68;82.74
18201;BME280;9226;47.858;9.594;2023-11-21T09:42:04;94853.97;;;11.05;81.66
18201;BME280;9226;47.858;9.594;2023-11-21T09:44:35;94852.19;;;11.43;79.51
18201;BME280;9226;47.858;9.594;2023-11-21T09:47:02;94851.13;;;11.73;77.54
18201;BME280;9226;47.858;9.594;2023-11-21T09:49:28;94856.78;;;11.98;77.30
18201;BME280;9226;47.858;9.594;2023-11-21T09:51:57;94848.44;;;12.11;74.97
18201;BME280;9226;47.858;9.594;2023-11-21T09:54:23;94847.25;;;12.23;74.98
18201;BME280;9226;47.858;9.594;2023-11-21T09:56:50;94841.41;;;12.20;72.66
18201;BME280;9226;47.858;9.594;2023-11-21T09:59:15;94849.38;;;12.20;72.87
18201;BME280;9226;47.858;9.594;2023-11-21T10:01:41;94845.75;;;12.21;72.61
18201;BME280;9226;47.858;9.594;2023-11-21T10:04:08;94849.44;;;12.10;72.23
18201;BME280;9226;47.858;9.594;2023-11-21T10:06:39;94845.56;;;12.04;71.90
18201;BME280;9226;47.858;9.594;2023-11-21T10:09:04;94847.22;;;12.05;72.32
18201;BME280;9226;47.858;9.594;2023-11-21T10:11:39;94849.81;;;11.97;71.55
18201;BME280;9226;47.858;9.594;2023-11-21T10:14:08;94851.53;;;11.79;70.25
18201;BME280;9226;47.858;9.594;2023-11-21T10:16:36;94858.25;;;11.73;72.01
18201;BME280;9226;47.858;9.594;2023-11-21T10:19:04;94845.41;;;11.68;72.15
18201;BME280;9226;47.858;9.594;2023-11-21T10:21:32;94853.66;;;11.65;72.47
18201;BME280;9226;47.858;9.594;2023-11-21T10:23:58;94848.00;;;11.50;71.42
18201;BME280;9226;47.858;9.594;2023-11-21T10:26:26;94843.28;;;11.34;71.83
18201;BME280;9226;47.858;9.594;2023-11-21T10:28:59;94849.44;;;11.35;72.88
18201;BME280;9226;47.858;9.594;2023-11-21T10:31:27;94835.16;;;11.46;73.93
18201;BME280;9226;47.858;9.594;2023-11-21T10:33:53;94839.31;;;11.58;74.95
18201;BME280;9226;47.858;9.594;2023-11-21T10:36:28;94834.09;;;11.66;73.27
18201;BME280;9226;47.858;9.594;2023-11-21T10:38:54;94835.28;;;11.82;73.11
18201;BME280;9226;47.858;9.594;2023-11-21T10:41:22;94831.50;;;11.94;72.96
18201;BME280;9226;47.858;9.594;2023-11-21T10:43:48;94828.53;;;11.97;71.80
18201;BME280;9226;47.858;9.594;2023-11-21T10:46:14;94837.03;;;12.01;72.20
18201;BME280;9226;47.858;9.594;2023-11-21T10:48:41;94833.50;;;12.10;71.07
18201;BME280;9226;47.858;9.594;2023-11-21T10:51:07;94835.28;;;12.09;71.27
18201;BME280;9226;47.858;9.594;2023-11-21T10:53:38;94830.69;;;12.11;71.51
18201;BME280;9226;47.858;9.594;2023-11-21T10:56:06;94837.06;;;12.19;70.13
18201;BME280;9226;47.858;9.594;2023-11-21T10:58:32;94831.81;;;12.09;70.01
18201;BME280;9226;47.858;9.594;2023-11-21T11:00:59;94841.91;;;12.05;70.54
18201;BME280;9226;47.858;9.594;2023-11-21T11:03:25;94840.44;;;11.93;69.00
18201;BME280;9226;47.858;9.594;2023-11-21T11:05:52;94845.31;;;11.98;69.72
18201;BME280;9226;47.858;9.594;2023-11-21T11:08:21;94834.41;;;11.91;70.19
18201;BME280;9226;47.858;9.594;2023-11-21T11:10:51;94834.41;;;11.91;70.48
18201;BME280;9226;47.858;9.594;2023-11-21T11:13:17;94828.38;;;11.89;70.78
18201;BME280;9226;47.858;9.594;2023-11-21T11:15:47;94835.81;;;11.95;71.26
18201;BME280;9226;47.858;9.594;2023-11-21T11:18:12;94834.41;;;11.91;69.99
18201;BME280;9226;47.858;9.594;2023-11-21T11:20:40;94836.41;;;11.79;69.81
18201;BME280;9226;47.858;9.594;2023-11-21T11:23:37;94840.38;;;11.75;69.98
18201;BME280;9226;47.858;9.594;2023-11-21T11:32:12;94843.69;;;11.77;69.41
18201;BME280;9226;47.858;9.594;2023-11-21T11:34:47;94835.78;;;11.67;69.65
18201;BME280;9226;47.858;9.594;2023-11-21T11:37:15;94835.91;;;11.66;69.72
18201;BME280;9226;47.858;9.594;2023-11-21T11:39:42;94832.25;;;11.67;70.75
18201;BME280;9226;47.858;9.594;2023-11-21T11:42:15;94831.97;;;11.70;70.80
18201;BME280;9226;47.858;9.594;2023-11-21T11:47:20;94829.16;;;11.71;70.91
18201;BME280;9226;47.858;9.594;2023-11-21T11:50:05;94826.66;;;11.70;70.86
18201;BME280;9226;47.858;9.594;2023-11-21T11:52:45;94828.72;;;11.76;71.40
18201;BME280;9226;47.858;9.594;2023-11-21T11:55:16;94828.28;;;11.81;71.45
18201;BME280;9226;47.858;9.594;2023-11-21T11:57:45;94823.78;;;11.91;71.76
18201;BME280;9226;47.858;9.594;2023-11-21T12:00:18;94824.56;;;12.01;72.39
18201;BME280;9226;47.858;9.594;2023-11-21T12:02:47;94816.94;;;12.16;72.11
18201;BME280;9226;47.858;9.594;2023-11-21T12:05:22;94814.44;;;12.15;71.18
18201;BME280;9226;47.858;9.594;2023-11-21T12:07:53;94819.47;;;12.36;71.84
18201;BME280;9226;47.858;9.594;2023-11-21T12:12:54;94814.44;;;12.51;70.17
18201;BME280;9226;47.858;9.594;2023-11-21T12:15:20;94814.84;;;12.56;70.24
18201;BME280;9226;47.858;9.594;2023-11-21T12:17:47;94819.56;;;12.62;70.53
18201;BME280;9226;47.858;9.594;2023-11-21T12:20:13;94816.56;;;12.65;70.65
18201;BME280;9226;47.858;9.594;2023-11-21T12:22:46;94828.88;;;12.66;70.57
18201;BME280;9226;47.858;9.594;2023-11-21T12:25:18;94827.13;;;12.57;70.11
18201;BME280;9226;47.858;9.594;2023-11-21T12:27:53;94825.34;;;12.57;70.44
18201;BME280;9226;47.858;9.594;2023-11-21T12:30:22;94820.53;;;12.61;70.54
18201;BME280;9226;47.858;9.594;2023-11-21T12:32:49;94823.03;;;12.62;70.30
18201;BME280;9226;47.858;9.594;2023-11-21T12:35:16;94825.56;;;12.64;69.71
18201;BME280;9226;47.858;9.594;2023-11-21T12:37:45;94823.88;;;12.63;69.67
18201;BME280;9226;47.858;9.594;2023-11-21T12:40:13;94826.22;;;12.66;70.04
18201;BME280;9226;47.858;9.594;2023-11-21T12:42:53;94824.94;;;12.70;69.89
18201;BME280;9226;47.858;9.594;2023-11-21T12:45:22;94820.59;;;12.69;68.58
18201;BME280;9226;47.858;9.594;2023-11-21T12:47:50;94826.38;;;12.64;68.67
18201;BME280;9226;47.858;9.594;2023-11-21T12:50:19;94825.31;;;12.39;64.53
18201;BME280;9226;47.858;9.594;2023-11-21T12:52:49;94824.63;;;12.37;65.69
18201;BME280;9226;47.858;9.594;2023-11-21T12:55:16;94829.88;;;12.29;64.85
18201;BME280;9226;47.858;9.594;2023-11-21T12:57:47;94822.56;;;12.31;65.69
18201;BME280;9226;47.858;9.594;2023-11-21T13:00:15;94831.38;;;12.31;66.81
18201;BME280;9226;47.858;9.594;2023-11-21T13:02:55;94830.09;;;12.18;66.01
18201;BME280;9226;47.858;9.594;2023-11-21T13:05:26;94833.44;;;12.20;67.07
18201;BME280;9226;47.858;9.594;2023-11-21T13:07:52;94837.06;;;12.19;67.24
18201;BME280;9226;47.858;9.594;2023-11-21T13:10:22;94837.59;;;12.22;67.24
18201;BME280;9226;47.858;9.594;2023-11-21T13:12:52;94840.09;;;12.24;66.93
18201;BME280;9226;47.858;9.594;2023-11-21T13:15:18;94841.50;;;12.28;67.43
18201;BME280;9226;47.858;9.594;2023-11-21T13:17:44;94850.16;;;12.30;66.67
18201;BME280;9226;47.858;9.594;2023-11-21T13:20:11;94862.25;;;12.24;66.11
18201;BME280;9226;47.858;9.594;2023-11-21T13:23:06;94868.16;;;12.18;66.60
18201;BME280;9226;47.858;9.594;2023-11-21T13:25:32;94871.63;;;12.19;67.06
18201;BME280;9226;47.858;9.594;2023-11-21T13:27:58;94882.47;;;12.07;67.17
18201;BME280;9226;47.858;9.594;2023-11-21T13:30:24;94875.81;;;11.93;67.21